sensor_id;sensor_type;location;lat;lon;timestamp;pressure;altitude;pressure_sealevel;temperature;humidity
45071;BME280;30836;48.906;9.140;2023-08-12T00:00:36;988.78;;;29.71;43.34
45071;BME280;30836;48.906;9.140;2023-08-12T00:01:36;988.76;;;29.67;43.26
45071;BME280;30836;48.906;9.140;2023-08-12T00:02:37;988.76;;;29.64;43.26
45071;BME280;30836;48.906;9.140;2023-08-12T00:03:38;988.74;;;29.62;43.32
45071;BME280;30836;48.906;9.140;2023-08-12T00:04:39;988.74;;;29.59;43.44
45071;BME280;30836;48.906;9.140;2023-08-12T00:05:39;988.70;;;29.57;43.45
45071;BME280;30836;48.906;9.140;2023-08-12T00:06:40;988.70;;;29.57;43.35
45071;BME280;30836;48.906;9.140;2023-08-12T00:07:41;988.70;;;29.59;43.28
45071;BME280;30836;48.906;9.140;2023-08-12T00:08:42;988.66;;;29.60;43.44
45071;BME280;30836;48.906;9.140;2023-08-12T00:09:42;988.68;;;29.59;43.49
45071;BME280;30836;48.906;9.140;2023-08-12T00:10:43;988.66;;;29.58;43.42
45071;BME280;30836;48.906;9.140;2023-08-12T00:11:43;988.66;;;29.59;43.35
45071;BME280;30836;48.906;9.140;2023-08-12T00:12:44;988.64;;;29.60;43.30
45071;BME280;30836;48.906;9.140;2023-08-12T00:13:44;988.61;;;29.59;43.49
45071;BME280;30836;48.906;9.140;2023-08-12T00:14:45;988.61;;;29.56;43.58
45071;BME280;30836;48.906;9.140;2023-08-12T00:15:45;988.61;;;29.55;43.49
45071;BME280;30836;48.906;9.140;2023-08-12T00:16:45;988.57;;;29.54;43.52
45071;BME280;30836;48.906;9.140;2023-08-12T00:17:46;988.59;;;29.53;43.47
45071;BME280;30836;48.906;9.140;2023-08-12T00:18:46;988.55;;;29.54;43.37
45071;BME280;30836;48.906;9.140;2023-08-12T00:19:47;988.57;;;29.56;43.21
45071;BME280;30836;48.906;9.140;2023-08-12T00:20:47;988.57;;;29.58;43.25
45071;BME280;30836;48.906;9.140;2023-08-12T00:21:47;988.53;;;29.57;43.38
45071;BME280;30836;48.906;9.140;2023-08-12T00:22:48;988.51;;;29.56;43.37
45071;BME280;30836;48.906;9.140;2023-08-12T00:23:48;988.49;;;29.55;43.37
45071;BME280;30836;48.906;9.140;2023-08-12T00:24:49;988.45;;;29.54;43.44
45071;BME280;30836;48.906;9.140;2023-08-12T00:25:49;988.41;;;29.55;43.30
45071;BME280;30836;48.906;9.140;2023-08-12T00:26:50;988.41;;;29.56;43.20
45071;BME280;30836;48.906;9.140;2023-08-12T00:27:50;988.39;;;29.57;43.18
45071;BME280;30836;48.906;9.140;2023-08-12T00:28:51;988.39;;;29.57;43.23
45071;BME280;30836;48.906;9.140;2023-08-12T00:29:51;988.41;;;29.56;43.36
45071;BME280;30836;48.906;9.140;2023-08-12T00:30:51;988.43;;;29.55;43.35
45071;BME280;30836;48.906;9.140;2023-08-12T00:31:52;988.43;;;29.54;43.34
45071;BME280;30836;48.906;9.140;2023-08-12T00:32:52;988.41;;;29.54;43.20
45071;BME280;30836;48.906;9.140;2023-08-12T00:33:53;988.39;;;29.56;43.15
45071;BME280;30836;48.906;9.140;2023-08-12T00:34:53;988.39;;;29.57;43.19
45071;BME280;30836;48.906;9.140;2023-08-12T00:35:53;988.41;;;29.57;43.17
45071;BME280;30836;48.906;9.140;2023-08-12T00:36:54;988.41;;;29.59;43.24
45071;BME280;30836;48.906;9.140;2023-08-12T00:37:55;988.41;;;29.59;43.16
45071;BME280;30836;48.906;9.140;2023-08-12T00:38:55;988.41;;;29.59;43.22
45071;BME280;30836;48.906;9.140;2023-08-12T00:39:56;988.39;;;29.59;43.11
45071;BME280;30836;48.906;9.140;2023-08-12T00:40:56;988.41;;;29.58;43.19
45071;BME280;30836;48.906;9.140;2023-08-12T00:41:56;988.37;;;29.57;43.18
45071;BME280;30836;48.906;9.140;2023-08-12T00:42:57;988.37;;;29.56;43.20
45071;BME280;30836;48.906;9.140;2023-08-12T00:43:57;988.37;;;29.55;43.25
45071;BME280;30836;48.906;9.140;2023-08-12T00:44:58;988.37;;;29.54;43.23
45071;BME280;30836;48.906;9.140;2023-08-12T00:45:58;988.37;;;29.52;43.27
45071;BME280;30836;48.906;9.140;2023-08-12T00:46:59;988.39;;;29.50;43.29
45071;BME280;30836;48.906;9.140;2023-08-12T00:47:59;988.39;;;29.50;43.34
45071;BME280;30836;48.906;9.140;2023-08-12T00:49:00;988.39;;;29.50;43.29
45071;BME280;30836;48.906;9.140;2023-08-12T00:50:00;988.37;;;29.50;43.31
45071;BME280;30836;48.906;9.140;2023-08-12T00:51:02;988.35;;;29.50;43.43
45071;BME280;30836;48.906;9.140;2023-08-12T00:52:02;988.35;;;29.48;43.57
45071;BME280;30836;48.906;9.140;2023-08-12T00:53:03;988.31;;;29.45;43.58
45071;BME280;30836;48.906;9.140;2023-08-12T00:54:04;988.33;;;29.43;43.49
45071;BME280;30836;48.906;9.140;2023-08-12T00:55:06;988.29;;;29.41;43.45
45071;BME280;30836;48.906;9.140;2023-08-12T00:56:07;988.29;;;29.41;43.38
45071;BME280;30836;48.906;9.140;2023-08-12T00:57:07;988.27;;;29.40;43.44
45071;BME280;30836;48.906;9.140;2023-08-12T00:58:08;988.27;;;29.37;43.44
45071;BME280;30836;48.906;9.140;2023-08-12T00:59:09;988.31;;;29.34;43.53
45071;BME280;30836;48.906;9.140;2023-08-12T01:00:10;988.29;;;29.31;43.40
45071;BME280;30836;48.906;9.140;2023-08-12T01:01:11;988.31;;;29.32;43.46
45071;BME280;30836;48.906;9.140;2023-08-12T01:02:12;988.27;;;29.36;43.23
45071;BME280;30836;48.906;9.140;2023-08-12T01:03:12;988.29;;;29.46;42.94
45071;BME280;30836;48.906;9.140;2023-08-12T01:04:13;988.31;;;29.55;42.84
45071;BME280;30836;48.906;9.140;2023-08-12T01:05:14;988.27;;;29.63;42.65
45071;BME280;30836;48.906;9.140;2023-08-12T01:06:15;988.31;;;29.69;42.56
45071;BME280;30836;48.906;9.140;2023-08-12T01:07:15;988.29;;;29.75;42.41
45071;BME280;30836;48.906;9.140;2023-08-12T01:08:16;988.25;;;29.80;42.35
45071;BME280;30836;48.906;9.140;2023-08-12T01:09:16;988.23;;;29.83;42.29
45071;BME280;30836;48.906;9.140;2023-08-12T01:10:17;988.21;;;29.86;42.22
45071;BME280;30836;48.906;9.140;2023-08-12T01:12:34;988.17;;;29.92;42.07
45071;BME280;30836;48.906;9.140;2023-08-12T01:14:52;988.15;;;29.94;42.04
45071;BME280;30836;48.906;9.140;2023-08-12T01:15:53;988.15;;;29.95;42.01
45071;BME280;30836;48.906;9.140;2023-08-12T01:16:58;988.17;;;29.96;41.92
45071;BME280;30836;48.906;9.140;2023-08-12T01:18:02;988.12;;;29.99;41.92
45071;BME280;30836;48.906;9.140;2023-08-12T01:19:04;988.15;;;30.00;41.87
45071;BME280;30836;48.906;9.140;2023-08-12T01:20:06;988.13;;;30.02;41.81
45071;BME280;30836;48.906;9.140;2023-08-12T01:21:09;988.12;;;30.02;41.88
45071;BME280;30836;48.906;9.140;2023-08-12T01:22:15;988.10;;;30.01;41.99
45071;BME280;30836;48.906;9.140;2023-08-12T01:23:16;988.12;;;30.01;41.92
45071;BME280;30836;48.906;9.140;2023-08-12T01:24:17;988.10;;;30.02;41.91
45071;BME280;30836;48.906;9.140;2023-08-12T01:25:21;988.10;;;30.04;41.76
45071;BME280;30836;48.906;9.140;2023-08-12T01:26:21;988.08;;;30.05;41.73
45071;BME280;30836;48.906;9.140;2023-08-12T01:27:22;988.10;;;30.05;41.81
45071;BME280;30836;48.906;9.140;2023-08-12T01:28:22;988.08;;;30.03;41.93
45071;BME280;30836;48.906;9.140;2023-08-12T01:29:23;988.08;;;30.02;42.01
45071;BME280;30836;48.906;9.140;2023-08-12T01:30:23;988.04;;;30.01;41.87
45071;BME280;30836;48.906;9.140;2023-08-12T01:35:04;987.96;;;29.99;41.99
45071;BME280;30836;48.906;9.140;2023-08-12T01:36:01;987.94;;;29.99;42.02
45071;BME280;30836;48.906;9.140;2023-08-12T01:37:11;987.94;;;29.99;42.09
45071;BME280;30836;48.906;9.140;2023-08-12T01:38:14;987.94;;;29.98;42.12
45071;BME280;30836;48.906;9.140;2023-08-12T01:39:15;987.92;;;29.94;42.30
45071;BME280;30836;48.906;9.140;2023-08-12T01:40:18;987.94;;;29.91;42.27
45071;BME280;30836;48.906;9.140;2023-08-12T01:41:20;987.92;;;29.89;42.37
45071;BME280;30836;48.906;9.140;2023-08-12T01:42:23;987.94;;;29.86;42.31
45071;BME280;30836;48.906;9.140;2023-08-12T01:43:25;987.90;;;29.85;42.38
45071;BME280;30836;48.906;9.140;2023-08-12T01:44:26;987.90;;;29.84;42.41
45071;BME280;30836;48.906;9.140;2023-08-12T01:45:26;987.92;;;29.83;42.41
45071;BME280;30836;48.906;9.140;2023-08-12T01:46:27;987.88;;;29.82;42.35
45071;BME280;30836;48.906;9.140;2023-08-12T01:47:27;987.88;;;29.81;42.30
45071;BME280;30836;48.906;9.140;2023-08-12T01:48:28;987.88;;;29.80;42.28
45071;BME280;30836;48.906;9.140;2023-08-12T01:49:29;987.88;;;29.77;42.43
45071;BME280;30836;48.906;9.140;2023-08-12T01:50:29;987.86;;;29.74;42.40
45071;BME280;30836;48.906;9.140;2023-08-12T01:51:29;987.88;;;29.70;42.44
45071;BME280;30836;48.906;9.140;2023-08-12T01:52:30;987.88;;;29.63;42.71
45071;BME280;30836;48.906;9.140;2023-08-12T01:53:30;987.90;;;29.51;43.00
45071;BME280;30836;48.906;9.140;2023-08-12T01:54:31;987.88;;;29.40;43.08
45071;BME280;30836;48.906;9.140;2023-08-12T01:55:31;987.86;;;29.31;43.32
45071;BME280;30836;48.906;9.140;2023-08-12T01:56:32;987.88;;;29.23;43.46
45071;BME280;30836;48.906;9.140;2023-08-12T01:57:32;987.86;;;29.16;43.56
45071;BME280;30836;48.906;9.140;2023-08-12T01:58:33;987.86;;;29.11;43.62
45071;BME280;30836;48.906;9.140;2023-08-12T01:59:36;987.86;;;29.08;43.77
45071;BME280;30836;48.906;9.140;2023-08-12T02:00:36;987.88;;;29.04;43.88
45071;BME280;30836;48.906;9.140;2023-08-12T02:01:37;987.84;;;29.01;44.02
45071;BME280;30836;48.906;9.140;2023-08-12T02:02:37;987.86;;;28.97;44.01
45071;BME280;30836;48.906;9.140;2023-08-12T02:03:38;987.88;;;28.94;44.12
45071;BME280;30836;48.906;9.140;2023-08-12T02:04:39;987.88;;;28.91;44.08
45071;BME280;30836;48.906;9.140;2023-08-12T02:05:40;987.88;;;28.91;43.96
45071;BME280;30836;48.906;9.140;2023-08-12T02:06:41;987.86;;;28.96;43.68
45071;BME280;30836;48.906;9.140;2023-08-12T02:07:41;987.88;;;29.04;43.56
45071;BME280;30836;48.906;9.140;2023-08-12T02:08:42;987.90;;;29.12;43.46
45071;BME280;30836;48.906;9.140;2023-08-12T02:09:42;987.88;;;29.19;43.34
45071;BME280;30836;48.906;9.140;2023-08-12T02:10:42;987.88;;;29.25;43.24
45071;BME280;30836;48.906;9.140;2023-08-12T02:11:43;987.90;;;29.29;43.17
45071;BME280;30836;48.906;9.140;2023-08-12T02:12:43;987.88;;;29.34;43.04
45071;BME280;30836;48.906;9.140;2023-08-12T02:13:44;987.90;;;29.36;43.10
45071;BME280;30836;48.906;9.140;2023-08-12T02:14:44;987.90;;;29.35;43.22
45071;BME280;30836;48.906;9.140;2023-08-12T02:15:45;987.90;;;29.34;43.17
45071;BME280;30836;48.906;9.140;2023-08-12T02:16:45;987.90;;;29.34;43.13
45071;BME280;30836;48.906;9.140;2023-08-12T02:17:45;987.92;;;29.33;43.12
45071;BME280;30836;48.906;9.140;2023-08-12T02:18:46;987.90;;;29.31;43.15
45071;BME280;30836;48.906;9.140;2023-08-12T02:19:46;987.90;;;29.31;43.11
45071;BME280;30836;48.906;9.140;2023-08-12T02:20:47;987.90;;;29.31;43.15
45071;BME280;30836;48.906;9.140;2023-08-12T02:21:47;987.92;;;29.30;43.13
45071;BME280;30836;48.906;9.140;2023-08-12T02:22:48;987.88;;;29.29;43.30
45071;BME280;30836;48.906;9.140;2023-08-12T02:23:48;987.88;;;29.27;43.28
45071;BME280;30836;48.906;9.140;2023-08-12T02:24:49;987.88;;;29.27;43.25
45071;BME280;30836;48.906;9.140;2023-08-12T02:25:49;987.88;;;29.27;43.18
45071;BME280;30836;48.906;9.140;2023-08-12T02:26:51;987.86;;;29.27;43.21
45071;BME280;30836;48.906;9.140;2023-08-12T02:27:52;987.86;;;29.25;43.34
45071;BME280;30836;48.906;9.140;2023-08-12T02:28:52;987.88;;;29.21;43.44
45071;BME280;30836;48.906;9.140;2023-08-12T02:29:53;987.86;;;29.18;43.44
45071;BME280;30836;48.906;9.140;2023-08-12T02:30:53;987.84;;;29.15;43.54
45071;BME280;30836;48.906;9.140;2023-08-12T02:31:54;987.82;;;29.13;43.56
45071;BME280;30836;48.906;9.140;2023-08-12T02:32:54;987.84;;;29.13;43.53
45071;BME280;30836;48.906;9.140;2023-08-12T02:33:54;987.84;;;29.12;43.49
45071;BME280;30836;48.906;9.140;2023-08-12T02:34:55;987.84;;;29.12;43.55
45071;BME280;30836;48.906;9.140;2023-08-12T02:35:55;987.82;;;29.12;43.50
45071;BME280;30836;48.906;9.140;2023-08-12T02:36:56;987.82;;;29.11;43.66
45071;BME280;30836;48.906;9.140;2023-08-12T02:37:56;987.80;;;29.11;43.71
45071;BME280;30836;48.906;9.140;2023-08-12T02:38:57;987.82;;;29.11;43.75
45071;BME280;30836;48.906;9.140;2023-08-12T02:39:57;987.82;;;29.13;43.58
45071;BME280;30836;48.906;9.140;2023-08-12T02:40:57;987.84;;;29.15;43.53
45071;BME280;30836;48.906;9.140;2023-08-12T02:41:58;987.84;;;29.17;43.56
45071;BME280;30836;48.906;9.140;2023-08-12T02:42:58;987.82;;;29.18;43.59
45071;BME280;30836;48.906;9.140;2023-08-12T02:43:59;987.82;;;29.19;43.59
45071;BME280;30836;48.906;9.140;2023-08-12T02:44:59;987.80;;;29.20;43.67
45071;BME280;30836;48.906;9.140;2023-08-12T02:46:00;987.78;;;29.19;43.66
45071;BME280;30836;48.906;9.140;2023-08-12T02:47:00;987.82;;;29.19;43.55
45071;BME280;30836;48.906;9.140;2023-08-12T02:48:00;987.82;;;29.19;43.54
45071;BME280;30836;48.906;9.140;2023-08-12T02:49:01;987.82;;;29.17;43.67
45071;BME280;30836;48.906;9.140;2023-08-12T02:50:01;987.82;;;29.13;43.73
45071;BME280;30836;48.906;9.140;2023-08-12T02:51:02;987.82;;;29.10;43.74
45071;BME280;30836;48.906;9.140;2023-08-12T02:52:02;987.84;;;29.07;43.79
45071;BME280;30836;48.906;9.140;2023-08-12T02:53:03;987.82;;;29.05;43.87
45071;BME280;30836;48.906;9.140;2023-08-12T02:54:04;987.84;;;29.03;43.90
45071;BME280;30836;48.906;9.140;2023-08-12T02:55:05;987.78;;;29.02;43.96
45071;BME280;30836;48.906;9.140;2023-08-12T02:56:06;987.78;;;29.01;43.92
45071;BME280;30836;48.906;9.140;2023-08-12T02:57:06;987.78;;;29.01;44.02
45071;BME280;30836;48.906;9.140;2023-08-12T02:58:06;987.76;;;29.00;44.13
45071;BME280;30836;48.906;9.140;2023-08-12T02:59:07;987.80;;;28.98;44.20
45071;BME280;30836;48.906;9.140;2023-08-12T03:00:07;987.80;;;28.97;44.15
45071;BME280;30836;48.906;9.140;2023-08-12T03:01:08;987.78;;;28.96;44.24
45071;BME280;30836;48.906;9.140;2023-08-12T03:02:09;987.78;;;28.93;44.33
45071;BME280;30836;48.906;9.140;2023-08-12T03:03:09;987.76;;;28.89;44.43
45071;BME280;30836;48.906;9.140;2023-08-12T03:04:10;987.76;;;28.86;44.44
45071;BME280;30836;48.906;9.140;2023-08-12T03:05:10;987.74;;;28.84;44.39
45071;BME280;30836;48.906;9.140;2023-08-12T03:06:11;987.76;;;28.82;44.41
45071;BME280;30836;48.906;9.140;2023-08-12T03:07:11;987.74;;;28.80;44.45
45071;BME280;30836;48.906;9.140;2023-08-12T03:08:12;987.76;;;28.79;44.51
45071;BME280;30836;48.906;9.140;2023-08-12T03:09:12;987.74;;;28.78;44.49
45071;BME280;30836;48.906;9.140;2023-08-12T03:10:13;987.76;;;28.78;44.49
45071;BME280;30836;48.906;9.140;2023-08-12T03:11:13;987.74;;;28.78;44.50
45071;BME280;30836;48.906;9.140;2023-08-12T03:12:14;987.74;;;28.80;44.46
45071;BME280;30836;48.906;9.140;2023-08-12T03:13:14;987.74;;;28.82;44.28
45071;BME280;30836;48.906;9.140;2023-08-12T03:14:15;987.70;;;28.85;44.10
45071;BME280;30836;48.906;9.140;2023-08-12T03:15:15;987.72;;;28.88;44.12
45071;BME280;30836;48.906;9.140;2023-08-12T03:16:15;987.70;;;28.91;44.00
45071;BME280;30836;48.906;9.140;2023-08-12T03:17:16;987.70;;;28.94;43.99
45071;BME280;30836;48.906;9.140;2023-08-12T03:18:16;987.70;;;28.96;43.91
45071;BME280;30836;48.906;9.140;2023-08-12T03:19:17;987.70;;;28.99;43.87
45071;BME280;30836;48.906;9.140;2023-08-12T03:20:17;987.70;;;28.97;44.12
45071;BME280;30836;48.906;9.140;2023-08-12T03:21:18;987.68;;;28.86;44.47
45071;BME280;30836;48.906;9.140;2023-08-12T03:22:18;987.66;;;28.75;44.74
45071;BME280;30836;48.906;9.140;2023-08-12T03:23:19;987.62;;;28.64;45.03
45071;BME280;30836;48.906;9.140;2023-08-12T03:24:19;987.62;;;28.56;45.13
45071;BME280;30836;48.906;9.140;2023-08-12T03:25:20;987.60;;;28.51;45.26
45071;BME280;30836;48.906;9.140;2023-08-12T03:26:20;987.57;;;28.47;45.38
45071;BME280;30836;48.906;9.140;2023-08-12T03:27:21;987.55;;;28.43;45.34
45071;BME280;30836;48.906;9.140;2023-08-12T03:28:21;987.55;;;28.40;45.35
45071;BME280;30836;48.906;9.140;2023-08-12T03:29:22;987.53;;;28.37;45.40
45071;BME280;30836;48.906;9.140;2023-08-12T03:30:23;987.49;;;28.33;45.45
45071;BME280;30836;48.906;9.140;2023-08-12T03:31:23;987.49;;;28.31;45.41
45071;BME280;30836;48.906;9.140;2023-08-12T03:32:24;987.51;;;28.31;45.41
45071;BME280;30836;48.906;9.140;2023-08-12T03:33:25;987.51;;;28.30;45.49
45071;BME280;30836;48.906;9.140;2023-08-12T03:34:27;987.51;;;28.29;45.45
45071;BME280;30836;48.906;9.140;2023-08-12T03:35:28;987.53;;;28.30;45.38
45071;BME280;30836;48.906;9.140;2023-08-12T03:36:29;987.57;;;28.31;45.41
45071;BME280;30836;48.906;9.140;2023-08-12T03:37:29;987.57;;;28.32;45.36
45071;BME280;30836;48.906;9.140;2023-08-12T03:38:29;987.58;;;28.32;45.38
45071;BME280;30836;48.906;9.140;2023-08-12T03:39:30;987.60;;;28.32;45.40
45071;BME280;30836;48.906;9.140;2023-08-12T03:40:31;987.62;;;28.32;45.36
45071;BME280;30836;48.906;9.140;2023-08-12T03:41:31;987.58;;;28.31;45.44
45071;BME280;30836;48.906;9.140;2023-08-12T03:42:31;987.57;;;28.29;45.58
45071;BME280;30836;48.906;9.140;2023-08-12T03:43:32;987.57;;;28.28;45.47
45071;BME280;30836;48.906;9.140;2023-08-12T03:44:32;987.57;;;28.28;45.52
45071;BME280;30836;48.906;9.140;2023-08-12T03:45:33;987.57;;;28.28;45.57
45071;BME280;30836;48.906;9.140;2023-08-12T03:46:39;987.60;;;28.29;45.49
45071;BME280;30836;48.906;9.140;2023-08-12T03:47:39;987.60;;;28.34;45.37
45071;BME280;30836;48.906;9.140;2023-08-12T03:48:39;987.60;;;28.37;45.31
45071;BME280;30836;48.906;9.140;2023-08-12T03:49:40;987.62;;;28.38;45.24
45071;BME280;30836;48.906;9.140;2023-08-12T03:50:42;987.60;;;28.37;45.38
45071;BME280;30836;48.906;9.140;2023-08-12T03:51:42;987.60;;;28.37;45.27
45071;BME280;30836;48.906;9.140;2023-08-12T03:52:43;987.62;;;28.37;45.27
45071;BME280;30836;48.906;9.140;2023-08-12T03:53:43;987.64;;;28.38;45.47
45071;BME280;30836;48.906;9.140;2023-08-12T03:54:44;987.66;;;28.37;45.51
45071;BME280;30836;48.906;9.140;2023-08-12T03:55:44;987.66;;;28.32;45.71
45071;BME280;30836;48.906;9.140;2023-08-12T03:56:44;987.68;;;28.26;45.71
45071;BME280;30836;48.906;9.140;2023-08-12T03:57:45;987.66;;;28.22;45.84
45071;BME280;30836;48.906;9.140;2023-08-12T03:58:45;987.64;;;28.18;45.85
45071;BME280;30836;48.906;9.140;2023-08-12T03:59:46;987.66;;;28.17;45.90
45071;BME280;30836;48.906;9.140;2023-08-12T04:00:46;987.66;;;28.16;45.85
45071;BME280;30836;48.906;9.140;2023-08-12T04:01:47;987.66;;;28.15;45.94
45071;BME280;30836;48.906;9.140;2023-08-12T04:02:47;987.70;;;28.12;46.20
45071;BME280;30836;48.906;9.140;2023-08-12T04:03:48;987.74;;;28.07;46.28
45071;BME280;30836;48.906;9.140;2023-08-12T04:04:48;987.78;;;27.99;46.73
45071;BME280;30836;48.906;9.140;2023-08-12T04:05:49;987.78;;;27.88;47.06
45071;BME280;30836;48.906;9.140;2023-08-12T04:06:50;987.76;;;27.78;47.17
45071;BME280;30836;48.906;9.140;2023-08-12T04:07:50;987.76;;;27.69;47.32
45071;BME280;30836;48.906;9.140;2023-08-12T04:08:51;987.74;;;27.62;47.43
45071;BME280;30836;48.906;9.140;2023-08-12T04:09:51;987.74;;;27.59;47.44
45071;BME280;30836;48.906;9.140;2023-08-12T04:10:52;987.74;;;27.58;47.36
45071;BME280;30836;48.906;9.140;2023-08-12T04:11:52;987.72;;;27.59;47.45
45071;BME280;30836;48.906;9.140;2023-08-12T04:12:53;987.72;;;27.60;47.37
45071;BME280;30836;48.906;9.140;2023-08-12T04:13:53;987.74;;;27.61;47.28
45071;BME280;30836;48.906;9.140;2023-08-12T04:14:53;987.74;;;27.64;47.18
45071;BME280;30836;48.906;9.140;2023-08-12T04:15:54;987.76;;;27.68;47.07
45071;BME280;30836;48.906;9.140;2023-08-12T04:16:54;987.76;;;27.71;46.97
45071;BME280;30836;48.906;9.140;2023-08-12T04:17:55;987.76;;;27.73;47.03
45071;BME280;30836;48.906;9.140;2023-08-12T04:18:55;987.78;;;27.72;47.22
45071;BME280;30836;48.906;9.140;2023-08-12T04:19:55;987.78;;;27.73;47.14
45071;BME280;30836;48.906;9.140;2023-08-12T04:20:56;987.78;;;27.75;47.03
45071;BME280;30836;48.906;9.140;2023-08-12T04:21:56;987.74;;;27.77;46.94
45071;BME280;30836;48.906;9.140;2023-08-12T04:22:57;987.72;;;27.79;46.87
45071;BME280;30836;48.906;9.140;2023-08-12T04:23:57;987.72;;;27.83;46.69
45071;BME280;30836;48.906;9.140;2023-08-12T04:24:58;987.74;;;27.88;46.58
45071;BME280;30836;48.906;9.140;2023-08-12T04:25:58;987.70;;;27.92;46.51
45071;BME280;30836;48.906;9.140;2023-08-12T04:26:58;987.72;;;27.96;46.47
45071;BME280;30836;48.906;9.140;2023-08-12T04:27:59;987.72;;;27.99;46.38
45071;BME280;30836;48.906;9.140;2023-08-12T04:28:59;987.72;;;28.01;46.30
45071;BME280;30836;48.906;9.140;2023-08-12T04:30:00;987.74;;;28.01;46.28
45071;BME280;30836;48.906;9.140;2023-08-12T04:31:00;987.70;;;28.03;46.24
45071;BME280;30836;48.906;9.140;2023-08-12T04:32:01;987.74;;;28.04;46.10
45071;BME280;30836;48.906;9.140;2023-08-12T04:33:01;987.74;;;28.07;46.03
45071;BME280;30836;48.906;9.140;2023-08-12T04:34:02;987.74;;;28.10;46.07
45071;BME280;30836;48.906;9.140;2023-08-12T04:35:02;987.74;;;28.13;45.96
45071;BME280;30836;48.906;9.140;2023-08-12T04:36:03;987.72;;;28.14;45.99
45071;BME280;30836;48.906;9.140;2023-08-12T04:37:04;987.72;;;28.15;46.01
45071;BME280;30836;48.906;9.140;2023-08-12T04:38:04;987.76;;;28.17;45.90
45071;BME280;30836;48.906;9.140;2023-08-12T04:39:05;987.78;;;28.19;45.90
45071;BME280;30836;48.906;9.140;2023-08-12T04:40:05;987.80;;;28.21;46.02
45071;BME280;30836;48.906;9.140;2023-08-12T04:41:06;987.80;;;28.22;45.89
45071;BME280;30836;48.906;9.140;2023-08-12T04:42:07;987.78;;;28.23;45.94
45071;BME280;30836;48.906;9.140;2023-08-12T04:43:08;987.78;;;28.23;45.97
45071;BME280;30836;48.906;9.140;2023-08-12T04:44:09;987.76;;;28.23;45.92
45071;BME280;30836;48.906;9.140;2023-08-12T04:45:09;987.80;;;28.25;45.78
45071;BME280;30836;48.906;9.140;2023-08-12T04:46:10;987.84;;;28.27;45.82
45071;BME280;30836;48.906;9.140;2023-08-12T04:47:10;987.86;;;28.31;45.83
45071;BME280;30836;48.906;9.140;2023-08-12T04:48:11;987.86;;;28.32;45.91
45071;BME280;30836;48.906;9.140;2023-08-12T04:49:11;987.86;;;28.33;45.90
45071;BME280;30836;48.906;9.140;2023-08-12T04:50:12;987.82;;;28.34;45.88
45071;BME280;30836;48.906;9.140;2023-08-12T04:51:12;987.80;;;28.34;45.80
45071;BME280;30836;48.906;9.140;2023-08-12T04:52:13;987.76;;;28.34;45.84
45071;BME280;30836;48.906;9.140;2023-08-12T04:53:13;987.76;;;28.33;45.93
45071;BME280;30836;48.906;9.140;2023-08-12T04:54:14;987.72;;;28.32;45.92
45071;BME280;30836;48.906;9.140;2023-08-12T04:55:14;987.70;;;28.31;45.84
45071;BME280;30836;48.906;9.140;2023-08-12T04:56:15;987.72;;;28.31;45.79
45071;BME280;30836;48.906;9.140;2023-08-12T04:57:15;987.70;;;28.30;45.76
45071;BME280;30836;48.906;9.140;2023-08-12T04:58:15;987.72;;;28.31;45.65
45071;BME280;30836;48.906;9.140;2023-08-12T04:59:16;987.72;;;28.33;45.55
45071;BME280;30836;48.906;9.140;2023-08-12T05:00:16;987.74;;;28.36;45.57
45071;BME280;30836;48.906;9.140;2023-08-12T05:01:17;987.74;;;28.40;45.56
45071;BME280;30836;48.906;9.140;2023-08-12T05:02:17;987.80;;;28.44;45.49
45071;BME280;30836;48.906;9.140;2023-08-12T05:03:18;987.82;;;28.47;45.39
45071;BME280;30836;48.906;9.140;2023-08-12T05:04:18;987.82;;;28.50;45.33
45071;BME280;30836;48.906;9.140;2023-08-12T05:05:19;987.82;;;28.51;45.30
45071;BME280;30836;48.906;9.140;2023-08-12T05:06:19;987.86;;;28.50;45.33
45071;BME280;30836;48.906;9.140;2023-08-12T05:07:20;987.86;;;28.49;45.45
45071;BME280;30836;48.906;9.140;2023-08-12T05:08:20;987.88;;;28.47;45.52
45071;BME280;30836;48.906;9.140;2023-08-12T05:09:21;987.84;;;28.46;45.56
45071;BME280;30836;48.906;9.140;2023-08-12T05:10:21;987.88;;;28.45;45.66
45071;BME280;30836;48.906;9.140;2023-08-12T05:11:22;987.84;;;28.44;45.65
45071;BME280;30836;48.906;9.140;2023-08-12T05:12:22;987.82;;;28.43;45.90
45071;BME280;30836;48.906;9.140;2023-08-12T05:13:23;987.78;;;28.42;46.20
45071;BME280;30836;48.906;9.140;2023-08-12T05:14:23;987.74;;;28.43;46.50
45071;BME280;30836;48.906;9.140;2023-08-12T05:15:23;987.66;;;28.44;46.67
45071;BME280;30836;48.906;9.140;2023-08-12T05:16:24;987.66;;;28.46;46.80
45071;BME280;30836;48.906;9.140;2023-08-12T05:17:24;987.64;;;28.47;46.88
45071;BME280;30836;48.906;9.140;2023-08-12T05:18:25;987.66;;;28.48;46.92
45071;BME280;30836;48.906;9.140;2023-08-12T05:19:25;987.70;;;28.49;46.86
45071;BME280;30836;48.906;9.140;2023-08-12T05:20:26;987.72;;;28.51;46.80
45071;BME280;30836;48.906;9.140;2023-08-12T05:21:26;987.68;;;28.51;46.89
45071;BME280;30836;48.906;9.140;2023-08-12T05:22:26;987.70;;;28.49;47.09
45071;BME280;30836;48.906;9.140;2023-08-12T05:23:27;987.66;;;28.46;47.15
45071;BME280;30836;48.906;9.140;2023-08-12T05:24:27;987.66;;;28.42;47.19
45071;BME280;30836;48.906;9.140;2023-08-12T05:25:28;987.64;;;28.38;47.35
45071;BME280;30836;48.906;9.140;2023-08-12T05:26:28;987.64;;;28.35;47.45
45071;BME280;30836;48.906;9.140;2023-08-12T05:27:29;987.58;;;28.33;47.56
45071;BME280;30836;48.906;9.140;2023-08-12T05:28:29;987.58;;;28.31;47.73
45071;BME280;30836;48.906;9.140;2023-08-12T05:29:30;987.58;;;28.30;47.71
45071;BME280;30836;48.906;9.140;2023-08-12T05:30:31;987.62;;;28.30;47.77
45071;BME280;30836;48.906;9.140;2023-08-12T05:31:34;987.66;;;28.29;47.57
45071;BME280;30836;48.906;9.140;2023-08-12T05:32:35;987.72;;;28.28;47.53
45071;BME280;30836;48.906;9.140;2023-08-12T05:33:35;987.78;;;28.26;47.54
45071;BME280;30836;48.906;9.140;2023-08-12T05:34:35;987.80;;;28.23;47.68
45071;BME280;30836;48.906;9.140;2023-08-12T05:35:36;987.82;;;28.19;47.85
45071;BME280;30836;48.906;9.140;2023-08-12T05:36:36;987.84;;;28.13;48.02